sensor_id;sensor_type;location;lat;lon;timestamp;pressure;altitude;pressure_sealevel;temperature;humidity
2268;BME280;11052;43.338;25.502;2023-04-02T00:01:18;99460.00;;;10.58;100.00
2268;BME280;11052;43.338;25.502;2023-04-02T00:04:04;99452.56;;;10.50;100.00
2268;BME280;11052;43.338;25.502;2023-04-02T00:06:35;99453.97;;;10.57;100.00
2268;BME280;11052;43.338;25.502;2023-04-02T00:09:36;99455.00;;;10.53;100.00
2268;BME280;11052;43.338;25.502;2023-04-02T00:12:16;99461.09;;;10.52;100.00
2268;BME280;11052;43.338;25.502;2023-04-02T00:14:50;99453.13;;;10.57;100.00
2268;BME280;11052;43.338;25.502;2023-04-02T00:17:20;99442.84;;;10.55;100.00
2268;BME280;11052;43.338;25.502;2023-04-02T00:19:53;99441.38;;;10.68;100.00
2268;BME280;11052;43.338;25.502;2023-04-02T00:22:26;99444.25;;;10.62;100.00
2268;BME280;11052;43.338;25.502;2023-04-02T00:24:55;99447.34;;;10.70;100.00
2268;BME280;11052;43.338;25.502;2023-04-02T00:27:24;99445.03;;;10.64;100.00
2268;BME280;11052;43.338;25.502;2023-04-02T00:29:53;99445.78;;;10.66;100.00
2268;BME280;11052;43.338;25.502;2023-04-02T00:32:24;99440.97;;;10.77;100.00
2268;BME280;11052;43.338;25.502;2023-04-02T00:34:51;99431.59;;;10.75;100.00
2268;BME280;11052;43.338;25.502;2023-04-02T00:37:21;99432.22;;;10.80;100.00
2268;BME280;11052;43.338;25.502;2023-04-02T00:39:55;99437.41;;;10.80;100.00
2268;BME280;11052;43.338;25.502;2023-04-02T00:42:27;99434.19;;;10.75;100.00
2268;BME280;11052;43.338;25.502;2023-04-02T00:44:56;99439.38;;;10.75;100.00
2268;BME280;11052;43.338;25.502;2023-04-02T00:47:26;99439.22;;;10.78;100.00
2268;BME280;11052;43.338;25.502;2023-04-02T00:49:58;99437.75;;;10.72;100.00
2268;BME280;11052;43.338;25.502;2023-04-02T00:52:28;99443.78;;;10.73;100.00
2268;BME280;11052;43.338;25.502;2023-04-02T00:55:02;99445.66;;;10.69;100.00
2268;BME280;11052;43.338;25.502;2023-04-02T00:57:32;99446.09;;;10.79;100.00
2268;BME280;11052;43.338;25.502;2023-04-02T01:00:13;99454.72;;;10.79;100.00
2268;BME280;11052;43.338;25.502;2023-04-02T01:05:48;99454.59;;;10.82;100.00
2268;BME280;11052;43.338;25.502;2023-04-02T01:08:25;99455.78;;;10.94;100.00
2268;BME280;11052;43.338;25.502;2023-04-02T01:11:01;99460.69;;;11.00;100.00
2268;BME280;11052;43.338;25.502;2023-04-02T01:13:36;99458.25;;;10.97;100.00
2268;BME280;11052;43.338;25.502;2023-04-02T01:16:10;99474.13;;;10.90;100.00
2268;BME280;11052;43.338;25.502;2023-04-02T01:18:48;99462.50;;;10.98;100.00
2268;BME280;11052;43.338;25.502;2023-04-02T01:21:49;99476.13;;;11.03;100.00
2268;BME280;11052;43.338;25.502;2023-04-02T01:24:20;99477.31;;;10.96;100.00
2268;BME280;11052;43.338;25.502;2023-04-02T01:26:53;99483.06;;;11.03;100.00
2268;BME280;11052;43.338;25.502;2023-04-02T01:29:26;99488.50;;;10.97;100.00
2268;BME280;11052;43.338;25.502;2023-04-02T01:31:57;99489.44;;;10.96;100.00
2268;BME280;11052;43.338;25.502;2023-04-02T01:34:28;99490.97;;;11.00;100.00
2268;BME280;11052;43.338;25.502;2023-04-02T01:37:09;99480.72;;;10.97;100.00
2268;BME280;11052;43.338;25.502;2023-04-02T01:39:51;99482.84;;;11.07;100.00
2268;BME280;11052;43.338;25.502;2023-04-02T01:42:25;99487.25;;;11.05;100.00
2268;BME280;11052;43.338;25.502;2023-04-02T01:45:01;99489.34;;;10.97;100.00
2268;BME280;11052;43.338;25.502;2023-04-02T01:47:30;99490.84;;;11.03;100.00
2268;BME280;11052;43.338;25.502;2023-04-02T01:50:02;99485.38;;;11.09;100.00
2268;BME280;11052;43.338;25.502;2023-04-02T01:52:36;99485.66;;;11.03;100.00
2268;BME280;11052;43.338;25.502;2023-04-02T01:55:06;99483.56;;;11.11;100.00
2268;BME280;11052;43.338;25.502;2023-04-02T01:57:33;99488.75;;;11.11;100.00
2268;BME280;11052;43.338;25.502;2023-04-02T02:00:04;99491.06;;;11.17;100.00
2268;BME280;11052;43.338;25.502;2023-04-02T02:02:38;99498.53;;;11.04;100.00
2268;BME280;11052;43.338;25.502;2023-04-02T02:05:11;99502.69;;;11.08;100.00
2268;BME280;11052;43.338;25.502;2023-04-02T02:07:39;99504.38;;;11.09;100.00
2268;BME280;11052;43.338;25.502;2023-04-02T02:10:12;99504.44;;;11.08;100.00
2268;BME280;11052;43.338;25.502;2023-04-02T02:12:42;99517.59;;;11.03;100.00
2268;BME280;11052;43.338;25.502;2023-04-02T02:15:15;99504.50;;;11.06;100.00
2268;BME280;11052;43.338;25.502;2023-04-02T02:17:42;99505.50;;;11.04;100.00
2268;BME280;11052;43.338;25.502;2023-04-02T02:20:10;99506.31;;;11.04;100.00
2268;BME280;11052;43.338;25.502;2023-04-02T02:22:42;99494.59;;;10.96;100.00
2268;BME280;11052;43.338;25.502;2023-04-02T02:25:13;99486.75;;;10.97;100.00
2268;BME280;11052;43.338;25.502;2023-04-02T02:27:48;99488.59;;;10.95;100.00
2268;BME280;11052;43.338;25.502;2023-04-02T02:30:20;99484.59;;;10.88;100.00
2268;BME280;11052;43.338;25.502;2023-04-02T02:32:54;99483.16;;;10.81;100.00
2268;BME280;11052;43.338;25.502;2023-04-02T02:35:28;99474.53;;;10.80;100.00
2268;BME280;11052;43.338;25.502;2023-04-02T02:38:14;99477.28;;;10.77;100.00
2268;BME280;11052;43.338;25.502;2023-04-02T02:40:44;99485.75;;;10.81;100.00
2268;BME280;11052;43.338;25.502;2023-04-02T02:43:14;99496.25;;;10.78;100.00
2268;BME280;11052;43.338;25.502;2023-04-02T02:45:44;99493.22;;;10.68;100.00
2268;BME280;11052;43.338;25.502;2023-04-02T02:48:15;99492.66;;;10.62;100.00
2268;BME280;11052;43.338;25.502;2023-04-02T02:50:44;99496.78;;;10.66;100.00
2268;BME280;11052;43.338;25.502;2023-04-02T02:53:16;99488.50;;;10.58;100.00
2268;BME280;11052;43.338;25.502;2023-04-02T02:55:45;99494.41;;;10.61;100.00
2268;BME280;11052;43.338;25.502;2023-04-02T02:58:15;99487.53;;;10.60;100.00
2268;BME280;11052;43.338;25.502;2023-04-02T03:00:45;99487.06;;;10.71;100.00
2268;BME280;11052;43.338;25.502;2023-04-02T03:03:16;99488.41;;;10.79;100.00
2268;BME280;11052;43.338;25.502;2023-04-02T03:05:49;99482.16;;;10.65;100.00
2268;BME280;11052;43.338;25.502;2023-04-02T03:08:21;99484.16;;;10.58;100.00
2268;BME280;11052;43.338;25.502;2023-04-02T03:10:54;99487.47;;;10.62;100.00
2268;BME280;11052;43.338;25.502;2023-04-02T03:13:28;99478.97;;;10.58;100.00
2268;BME280;11052;43.338;25.502;2023-04-02T03:16:01;99480.72;;;10.58;100.00
2268;BME280;11052;43.338;25.502;2023-04-02T03:18:39;99476.38;;;10.58;100.00
2268;BME280;11052;43.338;25.502;2023-04-02T03:21:15;99478.13;;;10.58;100.00
2268;BME280;11052;43.338;25.502;2023-04-02T03:23:49;99476.84;;;10.47;100.00
2268;BME280;11052;43.338;25.502;2023-04-02T03:26:23;99488.31;;;10.42;100.00
2268;BME280;11052;43.338;25.502;2023-04-02T03:28:57;99488.25;;;10.43;100.00
2268;BME280;11052;43.338;25.502;2023-04-02T03:31:31;99489.31;;;10.39;100.00
2268;BME280;11052;43.338;25.502;2023-04-02T03:34:00;99493.91;;;10.33;100.00
2268;BME280;11052;43.338;25.502;2023-04-02T03:36:32;99492.09;;;10.35;100.00
2268;BME280;11052;43.338;25.502;2023-04-02T03:39:10;99493.72;;;10.37;100.00
2268;BME280;11052;43.338;25.502;2023-04-02T03:41:40;99498.00;;;10.38;100.00
2268;BME280;11052;43.338;25.502;2023-04-02T03:44:18;99507.28;;;10.42;100.00
2268;BME280;11052;43.338;25.502;2023-04-02T03:46:52;99506.59;;;10.39;100.00
2268;BME280;11052;43.338;25.502;2023-04-02T03:49:29;99515.06;;;10.42;100.00
2268;BME280;11052;43.338;25.502;2023-04-02T03:52:02;99525.66;;;10.38;100.00
2268;BME280;11052;43.338;25.502;2023-04-02T03:54:31;99523.00;;;10.39;100.00
2268;BME280;11052;43.338;25.502;2023-04-02T03:56:59;99532.66;;;10.36;100.00
2268;BME280;11052;43.338;25.502;2023-04-02T03:59:33;99530.53;;;10.44;100.00
2268;BME280;11052;43.338;25.502;2023-04-02T04:02:12;99538.13;;;10.48;100.00
2268;BME280;11052;43.338;25.502;2023-04-02T04:04:43;99539.63;;;10.54;100.00
2268;BME280;11052;43.338;25.502;2023-04-02T04:07:20;99542.03;;;10.59;100.00
2268;BME280;11052;43.338;25.502;2023-04-02T04:09:50;99534.44;;;10.54;100.00
2268;BME280;11052;43.338;25.502;2023-04-02T04:12:25;99536.50;;;10.46;100.00
2268;BME280;11052;43.338;25.502;2023-04-02T04:14:58;99540.34;;;10.58;100.00
2268;BME280;11052;43.338;25.502;2023-04-02T04:17:33;99542.94;;;10.58;100.00
2268;BME280;11052;43.338;25.502;2023-04-02T04:20:13;99548.69;;;10.64;100.00
2268;BME280;11052;43.338;25.502;2023-04-02T04:22:46;99549.78;;;10.59;100.00
2268;BME280;11052;43.338;25.502;2023-04-02T04:25:20;99561.53;;;10.67;100.00
2268;BME280;11052;43.338;25.502;2023-04-02T04:27:57;99561.66;;;10.64;100.00
2268;BME280;11052;43.338;25.502;2023-04-02T04:30:36;99568.72;;;10.61;100.00
2268;BME280;11052;43.338;25.502;2023-04-02T04:33:13;99576.94;;;10.70;100.00
2268;BME280;11052;43.338;25.502;2023-04-02T04:35:49;99577.97;;;10.66;100.00
2268;BME280;11052;43.338;25.502;2023-04-02T04:38:19;99573.97;;;10.79;100.00
2268;BME280;11052;43.338;25.502;2023-04-02T04:40:55;99580.56;;;10.66;100.00
2268;BME280;11052;43.338;25.502;2023-04-02T04:43:30;99576.81;;;10.73;100.00
2268;BME280;11052;43.338;25.502;2023-04-02T04:46:01;99575.78;;;10.77;100.00
2268;BME280;11052;43.338;25.502;2023-04-02T04:48:34;99573.00;;;10.82;100.00
2268;BME280;11052;43.338;25.502;2023-04-02T04:51:04;99582.25;;;10.88;100.00
2268;BME280;11052;43.338;25.502;2023-04-02T04:53:43;99581.50;;;10.86;100.00
2268;BME280;11052;43.338;25.502;2023-04-02T04:56:11;99575.13;;;10.93;100.00
2268;BME280;11052;43.338;25.502;2023-04-02T04:58:43;99581.16;;;10.93;100.00
2268;BME280;11052;43.338;25.502;2023-04-02T05:01:15;99592.09;;;11.00;100.00
2268;BME280;11052;43.338;25.502;2023-04-02T05:03:49;99588.81;;;10.96;100.00
2268;BME280;11052;43.338;25.502;2023-04-02T05:06:23;99590.63;;;10.94;100.00
2268;BME280;11052;43.338;25.502;2023-04-02T05:08:54;99596.72;;;10.93;100.00
2268;BME280;11052;43.338;25.502;2023-04-02T05:11:27;99602.69;;;10.95;100.00
2268;BME280;11052;43.338;25.502;2023-04-02T05:13:57;99610.19;;;11.01;100.00
2268;BME280;11052;43.338;25.502;2023-04-02T05:16:30;99611.75;;;11.05;100.00
2268;BME280;11052;43.338;25.502;2023-04-02T05:19:05;99608.25;;;11.06;100.00
2268;BME280;11052;43.338;25.502;2023-04-02T05:21:38;99611.22;;;11.18;100.00
2268;BME280;11052;43.338;25.502;2023-04-02T05:24:32;99612.13;;;11.16;100.00
2268;BME280;11052;43.338;25.502;2023-04-02T05:27:08;99611.03;;;11.22;100.00
2268;BME280;11052;43.338;25.502;2023-04-02T05:29:40;99607.22;;;11.29;100.00
2268;BME280;11052;43.338;25.502;2023-04-02T05:32:14;99617.84;;;11.43;100.00
2268;BME280;11052;43.338;25.502;2023-04-02T05:34:45;99625.88;;;11.37;100.00
2268;BME280;11052;43.338;25.502;2023-04-02T05:37:15;99633.84;;;11.53;100.00
2268;BME280;11052;43.338;25.502;2023-04-02T05:39:49;99628.66;;;11.53;100.00
2268;BME280;11052;43.338;25.502;2023-04-02T05:42:21;99639.69;;;11.58;100.00
2268;BME280;11052;43.338;25.502;2023-04-02T05:44:58;99641.44;;;11.58;100.00
2268;BME280;11052;43.338;25.502;2023-04-02T05:47:30;99649.50;;;11.70;100.00
2268;BME280;11052;43.338;25.502;2023-04-02T05:50:13;99646.59;;;11.78;100.00
2268;BME280;11052;43.338;25.502;2023-04-02T05:52:46;99650.59;;;11.85;100.00
2268;BME280;11052;43.338;25.502;2023-04-02T05:55:38;99653.19;;;11.85;100.00
2268;BME280;11052;43.338;25.502;2023-04-02T05:58:13;99648.06;;;11.84;100.00
2268;BME280;11052;43.338;25.502;2023-04-02T06:00:52;99656.09;;;11.98;100.00
2268;BME280;11052;43.338;25.502;2023-04-02T06:03:26;99661.84;;;12.04;100.00
2268;BME280;11052;43.338;25.502;2023-04-02T06:06:00;99663.59;;;12.04;100.00
2268;BME280;11052;43.338;25.502;2023-04-02T06:08:32;99650.97;;;11.96;100.00
2268;BME280;11052;43.338;25.502;2023-04-02T06:11:07;99662.22;;;12.14;100.00
2268;BME280;11052;43.338;25.502;2023-04-02T06:13:35;99667.53;;;12.12;100.00
2268;BME280;11052;43.338;25.502;2023-04-02T06:16:03;99666.06;;;12.24;100.00
2268;BME280;11052;43.338;25.502;2023-04-02T06:18:32;99660.72;;;12.27;100.00
2268;BME280;11052;43.338;25.502;2023-04-02T06:21:02;99654.66;;;12.45;100.00
2268;BME280;11052;43.338;25.502;2023-04-02T06:23:32;99657.75;;;12.54;100.00
2268;BME280;11052;43.338;25.502;2023-04-02T06:26:15;99663.03;;;12.69;100.00
2268;BME280;11052;43.338;25.502;2023-04-02T06:28:46;99667.41;;;12.69;100.00
2268;BME280;11052;43.338;25.502;2023-04-02T06:31:21;99657.16;;;12.83;100.00
2268;BME280;11052;43.338;25.502;2023-04-02T06:33:49;99661.59;;;12.98;100.00
2268;BME280;11052;43.338;25.502;2023-04-02T06:36:20;99668.06;;;13.07;100.00
2268;BME280;11052;43.338;25.502;2023-04-02T06:38:53;99678.91;;;13.17;100.00
2268;BME280;11052;43.338;25.502;2023-04-02T06:41:24;99674.22;;;13.23;100.00
2268;BME280;11052;43.338;25.502;2023-04-02T06:43:53;99673.06;;;13.29;100.00
2268;BME280;11052;43.338;25.502;2023-04-02T06:46:27;99667.16;;;13.42;100.00
2268;BME280;11052;43.338;25.502;2023-04-02T06:49:00;99670.47;;;13.62;100.00
2268;BME280;11052;43.338;25.502;2023-04-02T06:51:31;99680.63;;;13.84;100.00
2268;BME280;11052;43.338;25.502;2023-04-02T06:54:01;99679.75;;;13.99;100.00
2268;BME280;11052;43.338;25.502;2023-04-02T06:56:39;99680.78;;;14.28;100.00
2268;BME280;11052;43.338;25.502;2023-04-02T06:59:07;99691.31;;;14.42;100.00
2268;BME280;11052;43.338;25.502;2023-04-02T07:01:37;99698.22;;;14.59;100.00
2268;BME280;11052;43.338;25.502;2023-04-02T07:04:08;99706.03;;;14.59;100.00
2268;BME280;11052;43.338;25.502;2023-04-02T07:06:37;99698.28;;;14.73;100.00
2268;BME280;11052;43.338;25.502;2023-04-02T07:09:04;99699.72;;;15.23;100.00
2268;BME280;11052;43.338;25.502;2023-04-02T07:11:32;99699.25;;;15.30;100.00
2268;BME280;11052;43.338;25.502;2023-04-02T07:13:59;99704.81;;;15.54;100.00
2268;BME280;11052;43.338;25.502;2023-04-02T07:16:29;99703.59;;;15.74;100.00
2268;BME280;11052;43.338;25.502;2023-04-02T07:18:57;99711.72;;;15.69;100.00
2268;BME280;11052;43.338;25.502;2023-04-02T07:21:24;99708.56;;;15.64;100.00
2268;BME280;11052;43.338;25.502;2023-04-02T07:23:54;99701.84;;;15.74;100.00
2268;BME280;11052;43.338;25.502;2023-04-02T07:26:24;99713.13;;;15.61;100.00
2268;BME280;11052;43.338;25.502;2023-04-02T07:28:52;99710.03;;;15.68;100.00
2268;BME280;11052;43.338;25.502;2023-04-02T07:31:21;99704.16;;;15.93;100.00
2268;BME280;11052;43.338;25.502;2023-04-02T07:33:50;99694.06;;;16.16;100.00
2268;BME280;11052;43.338;25.502;2023-04-02T07:36:18;99700.78;;;16.47;100.00
2268;BME280;11052;43.338;25.502;2023-04-02T07:38:46;99707.63;;;16.76;100.00
2268;BME280;11052;43.338;25.502;2023-04-02T07:41:15;99713.19;;;17.11;100.00
2268;BME280;11052;43.338;25.502;2023-04-02T07:43:42;99705.97;;;17.27;100.00
2268;BME280;11052;43.338;25.502;2023-04-02T07:46:10;99715.00;;;17.74;100.00
2268;BME280;11052;43.338;25.502;2023-04-02T07:48:39;99709.03;;;17.85;100.00
2268;BME280;11052;43.338;25.502;2023-04-02T07:51:14;99705.88;;;17.54;100.00
2268;BME280;11052;43.338;25.502;2023-04-02T07:53:41;99714.56;;;17.17;100.00
2268;BME280;11052;43.338;25.502;2023-04-02T07:56:13;99709.38;;;17.02;92.75
2268;BME280;11052;43.338;25.502;2023-04-02T07:58:42;99699.84;;;17.01;92.07
2268;BME280;11052;43.338;25.502;2023-04-02T08:01:15;99706.97;;;16.99;95.56
2268;BME280;11052;43.338;25.502;2023-04-02T08:03:43;99699.00;;;17.01;96.43
2268;BME280;11052;43.338;25.502;2023-04-02T08:06:10;99698.00;;;17.16;94.47
2268;BME280;11052;43.338;25.502;2023-04-02T08:08:38;99699.16;;;17.63;91.86
2268;BME280;11052;43.338;25.502;2023-04-02T08:11:05;99689.63;;;17.62;89.45
2268;BME280;11052;43.338;25.502;2023-04-02T08:13:33;99700.84;;;17.64;90.49
2268;BME280;11052;43.338;25.502;2023-04-02T08:16:02;99704.28;;;17.64;85.71
2268;BME280;11052;43.338;25.502;2023-04-02T08:18:30;99705.22;;;17.38;84.65
2268;BME280;11052;43.338;25.502;2023-04-02T08:20:58;99709.72;;;17.11;85.91
2268;BME280;11052;43.338;25.502;2023-04-02T08:23:26;99716.06;;;16.94;85.84
2268;BME280;11052;43.338;25.502;2023-04-02T08:25:54;99708.56;;;16.75;87.69
2268;BME280;11052;43.338;25.502;2023-04-02T08:28:21;99709.34;;;16.90;91.94
2268;BME280;11052;43.338;25.502;2023-04-02T08:30:49;99710.25;;;17.41;91.75
2268;BME280;11052;43.338;25.502;2023-04-02T08:33:18;99703.91;;;17.83;88.95
2268;BME280;11052;43.338;25.502;2023-04-02T08:35:46;99709.97;;;18.33;89.56
2268;BME280;11052;43.338;25.502;2023-04-02T08:38:15;99717.75;;;18.58;86.85
2268;BME280;11052;43.338;25.502;2023-04-02T08:40:44;99706.09;;;18.86;83.12
2268;BME280;11052;43.338;25.502;2023-04-02T08:43:28;99709.72;;;18.96;84.51
2268;BME280;11052;43.338;25.502;2023-04-02T08:46:03;99714.44;;;18.80;80.06
2268;BME280;11052;43.338;25.502;2023-04-02T08:48:36;99715.84;;;18.37;79.63
2268;BME280;11052;43.338;25.502;2023-04-02T08:51:05;99715.22;;;17.96;81.30
2268;BME280;11052;43.338;25.502;2023-04-02T08:53:36;99712.25;;;17.63;78.53
2268;BME280;11052;43.338;25.502;2023-04-02T08:56:08;99718.91;;;17.81;88.40
2268;BME280;11052;43.338;25.502;2023-04-02T08:58:43;99729.81;;;18.24;89.27
2268;BME280;11052;43.338;25.502;2023-04-02T09:01:20;99721.41;;;17.95;79.76
2268;BME280;11052;43.338;25.502;2023-04-02T09:03:53;99726.03;;;18.28;87.06
2268;BME280;11052;43.338;25.502;2023-04-02T09:06:23;99726.38;;;18.60;81.45
2268;BME280;11052;43.338;25.502;2023-04-02T09:08:53;99732.59;;;18.83;82.41
2268;BME280;11052;43.338;25.502;2023-04-02T09:11:23;99731.19;;;18.66;78.24
2268;BME280;11052;43.338;25.502;2023-04-02T09:13:54;99729.13;;;18.46;79.25
2268;BME280;11052;43.338;25.502;2023-04-02T09:16:39;99740.28;;;18.37;80.75
2268;BME280;11052;43.338;25.502;2023-04-02T09:19:21;99733.09;;;18.52;81.78
2268;BME280;11052;43.338;25.502;2023-04-02T09:22:01;99739.81;;;18.92;80.49
2268;BME280;11052;43.338;25.502;2023-04-02T09:24:30;99737.41;;;18.89;80.69
2268;BME280;11052;43.338;25.502;2023-04-02T09:26:57;99742.16;;;18.84;83.33
2268;BME280;11052;43.338;25.502;2023-04-02T09:29:38;99737.50;;;18.88;81.91
2268;BME280;11052;43.338;25.502;2023-04-02T09:32:41;99735.59;;;18.66;80.29
2268;BME280;11052;43.338;25.502;2023-04-02T09:35:14;99742.16;;;18.84;81.41
2268;BME280;11052;43.338;25.502;2023-04-02T09:37:42;99732.16;;;18.89;83.55
2268;BME280;11052;43.338;25.502;2023-04-02T09:40:24;99735.19;;;19.07;82.13
2268;BME280;11052;43.338;25.502;2023-04-02T09:43:04;99734.78;;;19.36;84.86
2268;BME280;11052;43.338;25.502;2023-04-02T09:45:31;99729.03;;;19.66;84.20
2268;BME280;11052;43.338;25.502;2023-04-02T09:47:59;99729.06;;;19.77;79.92
2268;BME280;11052;43.338;25.502;2023-04-02T09:50:30;99737.19;;;19.85;78.58
2268;BME280;11052;43.338;25.502;2023-04-02T09:52:58;99727.34;;;20.09;77.56
2268;BME280;11052;43.338;25.502;2023-04-02T09:55:26;99730.09;;;19.96;74.79
2268;BME280;11052;43.338;25.502;2023-04-02T09:58:12;99721.56;;;19.48;75.50
2268;BME280;11052;43.338;25.502;2023-04-02T10:00:49;99717.91;;;19.62;75.91
2268;BME280;11052;43.338;25.502;2023-04-02T10:03:22;99729.00;;;19.54;73.38
2268;BME280;11052;43.338;25.502;2023-04-02T10:06:08;99718.97;;;19.59;79.02
2268;BME280;11052;43.338;25.502;2023-04-02T10:08:36;99719.56;;;20.08;84.14
2268;BME280;11052;43.338;25.502;2023-04-02T10:11:07;99722.44;;;20.27;78.56
2268;BME280;11052;43.338;25.502;2023-04-02T10:13:42;99722.84;;;19.89;75.50
2268;BME280;11052;43.338;25.502;2023-04-02T10:16:14;99729.97;;;19.98;72.09
2268;BME280;11052;43.338;25.502;2023-04-02T10:18:47;99722.44;;;20.05;68.62
2268;BME280;11052;43.338;25.502;2023-04-02T10:21:18;99726.88;;;20.26;73.50
2268;BME280;11052;43.338;25.502;2023-04-02T10:23:48;99716.56;;;20.35;71.78
2268;BME280;11052;43.338;25.502;2023-04-02T10:26:26;99714.31;;;19.96;70.23
2268;BME280;11052;43.338;25.502;2023-04-02T10:29:14;99722.69;;;19.68;71.51
2268;BME280;11052;43.338;25.502;2023-04-02T10:31:52;99719.56;;;20.19;74.12
2268;BME280;11052;43.338;25.502;2023-04-02T10:34:23;99716.94;;;20.41;71.98
2268;BME280;11052;43.338;25.502;2023-04-02T10:36:55;99723.41;;;20.15;66.61
2268;BME280;11052;43.338;25.502;2023-04-02T10:39:32;99722.09;;;20.20;70.61
2268;BME280;11052;43.338;25.502;2023-04-02T10:42:04;99721.00;;;20.45;68.52
2268;BME280;11052;43.338;25.502;2023-04-02T10:44:43;99721.84;;;20.46;65.61
2268;BME280;11052;43.338;25.502;2023-04-02T10:47:25;99714.97;;;20.66;62.05
2268;BME280;11052;43.338;25.502;2023-04-02T10:50:06;99721.56;;;20.60;66.38
2268;BME280;11052;43.338;25.502;2023-04-02T10:52:43;99716.44;;;20.47;65.92
2268;BME280;11052;43.338;25.502;2023-04-02T10:55:15;99708.41;;;20.60;66.82
2268;BME280;11052;43.338;25.502;2023-04-02T10:57:44;99730.41;;;20.70;67.87
2268;BME280;11052;43.338;25.502;2023-04-02T11:00:21;99714.69;;;20.80;66.87
2268;BME280;11052;43.338;25.502;2023-04-02T11:02:54;99722.50;;;20.70;64.99
2268;BME280;11052;43.338;25.502;2023-04-02T11:05:31;99712.25;;;20.56;63.83
2268;BME280;11052;43.338;25.502;2023-04-02T11:08:10;99712.88;;;20.15;60.34
2268;BME280;11052;43.338;25.502;2023-04-02T11:10:44;99720.41;;;19.97;63.68
2268;BME280;11052;43.338;25.502;2023-04-02T11:13:16;99703.28;;;20.25;64.63
2268;BME280;11052;43.338;25.502;2023-04-02T11:15:47;99712.75;;;20.27;62.43
2268;BME280;11052;43.338;25.502;2023-04-02T11:18:26;99718.41;;;19.67;62.79
2268;BME280;11052;43.338;25.502;2023-04-02T11:20:59;99721.75;;;19.23;61.25
2268;BME280;11052;43.338;25.502;2023-04-02T11:23:34;99717.94;;;19.27;65.65
2268;BME280;11052;43.338;25.502;2023-04-02T11:29:17;99718.28;;;19.80;63.93
2268;BME280;11052;43.338;25.502;2023-04-02T11:31:46;99718.94;;;19.48;65.72
2268;BME280;11052;43.338;25.502;2023-04-02T11:34:55;99721.25;;;19.18;62.71
2268;BME280;11052;43.338;25.502;2023-04-02T11:37:08;99725.44;;;18.85;63.93
2268;BME280;11052;43.338;25.502;2023-04-02T11:39:48;99723.31;;;18.66;64.98
2268;BME280;11052;43.338;25.502;2023-04-02T11:42:27;99714.78;;;18.76;65.53
2268;BME280;11052;43.338;25.502;2023-04-02T11:44:57;99719.75;;;18.67;63.66
2268;BME280;11052;43.338;25.502;2023-04-02T11:47:25;99711.75;;;18.93;66.75
2268;BME280;11052;43.338;25.502;2023-04-02T11:50:00;99715.13;;;19.06;67.26
2268;BME280;11052;43.338;25.502;2023-04-02T11:52:34;99709.84;;;18.95;64.22
2268;BME280;11052;43.338;25.502;2023-04-02T11:55:19;99703.44;;;18.75;64.37
2268;BME280;11052;43.338;25.502;2023-04-02T11:58:21;99702.75;;;18.60;65.52
2268;BME280;11052;43.338;25.502;2023-04-02T12:01:01;99699.78;;;18.89;65.04
2268;BME280;11052;43.338;25.502;2023-04-02T12:04:00;99701.44;;;19.25;60.19
2268;BME280;11052;43.338;25.502;2023-04-02T12:06:42;99713.47;;;19.05;61.32
2268;BME280;11052;43.338;25.502;2023-04-02T12:09:18;99719.66;;;19.04;62.46
2268;BME280;11052;43.338;25.502;2023-04-02T12:11:48;99710.69;;;18.95;63.23
2268;BME280;11052;43.338;25.502;2023-04-02T12:14:40;99714.09;;;18.85;64.10
2268;BME280;11052;43.338;25.502;2023-04-02T12:17:16;99701.25;;;19.50;64.77
2268;BME280;11052;43.338;25.502;2023-04-02T12:19:51;99707.63;;;20.04;62.97
2268;BME280;11052;43.338;25.502;2023-04-02T12:22:21;99700.41;;;20.28;61.59
2268;BME280;11052;43.338;25.502;2023-04-02T12:24:49;99699.34;;;20.19;60.22
2268;BME280;11052;43.338;25.502;2023-04-02T12:27:24;99708.81;;;20.11;61.71
2268;BME280;11052;43.338;25.502;2023-04-02T12:29:52;99702.31;;;20.37;59.46
2268;BME280;11052;43.338;25.502;2023-04-02T12:32:24;99691.84;;;20.69;59.66
2268;BME280;11052;43.338;25.502;2023-04-02T12:34:53;99696.66;;;20.85;62.01
2268;BME280;11052;43.338;25.502;2023-04-02T12:37:23;99693.59;;;21.01;59.22
2268;BME280;11052;43.338;25.502;2023-04-02T12:39:52;99694.69;;;20.98;58.79
2268;BME280;11052;43.338;25.502;2023-04-02T12:42:30;99692.78;;;21.00;59.87
2268;BME280;11052;43.338;25.502;2023-04-02T12:44:57;99688.13;;;20.92;59.34
2268;BME280;11052;43.338;25.502;2023-04-02T12:47:25;99698.88;;;20.80;57.28
2268;BME280;11052;43.338;25.502;2023-04-02T12:49:53;99694.03;;;20.64;55.76
2268;BME280;11052;43.338;25.502;2023-04-02T12:52:23;99686.47;;;20.71;55.77
2268;BME280;11052;43.338;25.502;2023-04-02T12:54:54;99684.19;;;20.66;55.81
2268;BME280;11052;43.338;25.502;2023-04-02T12:57:38;99679.38;;;20.71;55.36
2268;BME280;11052;43.338;25.502;2023-04-02T13:00:31;99685.31;;;20.52;56.72
2268;BME280;11052;43.338;25.502;2023-04-02T13:03:00;99696.84;;;20.40;58.93
2268;BME280;11052;43.338;25.502;2023-04-02T13:05:33;99694.22;;;20.40;55.25
2268;BME280;11052;43.338;25.502;2023-04-02T13:08:02;99689.75;;;20.52;55.75
2268;BME280;11052;43.338;25.502;2023-04-02T13:10:30;99682.09;;;20.49;57.39
2268;BME280;11052;43.338;25.502;2023-04-02T13:12:59;99687.13;;;20.52;54.71
2268;BME280;11052;43.338;25.502;2023-04-02T13:15:29;99683.91;;;20.48;55.03
2268;BME280;11052;43.338;25.502;2023-04-02T13:18:06;99682.84;;;20.17;54.43
2268;BME280;11052;43.338;25.502;2023-04-02T13:20:54;99691.94;;;20.02;54.48
2268;BME280;11052;43.338;25.502;2023-04-02T13:23:29;99697.19;;;20.24;54.48
2268;BME280;11052;43.338;25.502;2023-04-02T13:26:02;99684.13;;;20.34;55.94
2268;BME280;11052;43.338;25.502;2023-04-02T13:28:37;99682.94;;;20.49;57.46
2268;BME280;11052;43.338;25.502;2023-04-02T13:31:04;99681.13;;;20.50;52.64
2268;BME280;11052;43.338;25.502;2023-04-02T13:33:31;99686.16;;;20.53;53.60